Airfield :
LOGIN :

Register | Disclaimer

   EN    FR    IT 

 










Legend :    VFR   Marginal VFR   IFR   Intensive IFR   Very Intensive IFR
Visi :
Ceiling :
>= 8 km
>= 3000ft
5 to 8 km
1000 to 3000 ft
1500m to 5 km
500 to 1000 ft
800 to 1500m
200 to 500 ft
< 800m
< 200 ft
Symbols :   Thunderstorms  Fog  Heavy snow  Heavy precipitations  Wind > 20 kt
SIGMETs :     Misc.  Thunderstorms  Icing  Turbulence  Mountain Waves  Volcanic Ashes







- Airport Elevation : 87 ft
- IATA code : FSC
- Download approach charts


LFKF - Figari

CURRENT METAR :
  • 182100Z AUTO VRB02KT CAVOK 05/04 Q1017 NOSIG

EXPIRED METARs :
  • 182030Z AUTO 00000KT CAVOK 06/05 Q1017 NOSIG
  • 182000Z AUTO VRB03KT CAVOK 07/06 Q1017 NOSIG
  • 181930Z AUTO VRB02KT 9999 FEW033 07/06 Q1017 NOSIG
  • 181900Z AUTO 02003KT 280V060 9999 SCT034 07/06 Q1017 NOSIG
  • 181830Z AUTO 02003KT 9999 FEW036 09/07 Q1017 NOSIG

TAF TAF LFKF
Valid from the 18 at 15:00 until the 19 at 15:00 UTC


181400Z 1815/1915 24008KT 9999 BKN035
PROB40
TEMPO 1903/1908 BKN014
No reported NOTAMs for that airfield.



MET'MAP, your aeronautical weather chart ! - Copyright ORBIFLY December 2007 - Disclaimer

ORBIFLY MET'MAP TEAM :

Programming & Development : Alexandra Zaïnal
Concept & Development : Baudouin d'Aumeries
Co-Development & Prog : Marc-Olivier Méhu
Technical & hardware support : Manuel Goepfert

Contact : metmap@orbifly.com




SOURCES & CREDITS :

   NOAA